KCID/CID METAR and TAF weather

Enter ICAO airport designator
Station Type Date Time Source
KCID METAR 2021/03/02 13:52 UTC NOAA

KCID 021352Z 18010KT 7SM CLR M07/M09 A3021 RMK AO2 SLP245 T10721094


Station Type Date Time Source
KCID Decoded METAR 2021/03/02 13:52 UTC NOAA

CEDAR RAPIDS AIRPORT, IA, United States (KCID) 41-53N 91-43W
Mar 02, 2021 - 08:52 AM EST / 2021.03.02 1352 UTC
Wind: from the S (180 degrees) at 12 MPH (10 KT):0
Visibility: 7 mile(s):0
Sky conditions: clear
Temperature: 19.0 F (-7.2 C)
Windchill: 6 F (-14 C):1
Dew Point: 15.1 F (-9.4 C)
Relative Humidity: 84%
Pressure (altimeter): 30.21 in. Hg (1023 hPa)
ob: KCID 021352Z 18010KT 7SM CLR M07/M09 A3021 RMK AO2 SLP245 T10721094
cycle: 14

Station Type Date Time Source
KCID TAF 2021/03/02 12:22 UTC NOAA

TAF KCID 021120Z 0212/0312 17006KT P6SM SCT250
FM021600 20013G20KT P6SM SCT250
FM030000 21009KT P6SM SKC WS012/23040KT
FM030600 25006KT P6SM SKC
FM031000 32005KT P6SM SCT080

Example: see airport list